Time;durP1;ratioP1;P1;durP2;ratioP2;P2;SDS_P1;SDS_P2;PMS_P1;PMS_P2;Temp;Humidity;BMP_temperature;BMP_pressure;BME280_temperature;BME280_humidity;BME280_pressure;Samples;Min_cycle;Max_cycle;Signal;HPM_P1;HPM_P2
2022/10/16 00:01:15;;;;;;;3.13;1.38;;;17.20;94.70;;;;;;4898109;29;20036;-75
2022/10/16 00:03:42;;;;;;;1.30;1.20;;;17.20;94.70;;;;;;4897254;29;20040;-75
2022/10/16 00:06:09;;;;;;;3.15;1.10;;;17.20;94.70;;;;;;4896613;29;20175;-75
2022/10/16 00:08:35;;;;;;;1.20;1.02;;;17.30;94.60;;;;;;4904582;29;20627;-76
2022/10/16 00:11:07;;;;;;;2.85;1.17;;;17.20;94.70;;;;;;4893340;29;20111;-75
2022/10/16 00:13:34;;;;;;;3.90;1.02;;;17.20;94.80;;;;;;4896709;29;20135;-76
2022/10/16 00:16:00;;;;;;;2.08;1.00;;;17.20;94.80;;;;;;4897404;29;20078;-75
2022/10/16 00:18:27;;;;;;;0.98;0.88;;;17.30;94.80;;;;;;4896490;29;20028;-75
2022/10/16 00:20:54;;;;;;;1.85;1.48;;;17.30;94.80;;;;;;4900095;29;20167;-75
2022/10/16 00:23:20;;;;;;;2.28;1.20;;;17.30;94.80;;;;;;4904001;29;20032;-76
2022/10/16 00:25:58;;;;;;;1.75;0.95;;;17.30;94.80;;;;;;4899394;29;20485;-75
2022/10/16 00:28:25;;;;;;;2.65;1.10;;;17.30;94.80;;;;;;4898972;29;20559;-76
2022/10/16 00:30:50;;;;;;;1.20;1.10;;;17.30;94.80;;;;;;4897635;29;20021;-76
2022/10/16 00:33:16;;;;;;;1.35;1.05;;;17.30;94.90;;;;;;4895274;29;20762;-76
2022/10/16 00:35:42;;;;;;;0.93;0.88;;;17.40;94.80;;;;;;4899259;29;20354;-76
2022/10/16 00:38:08;;;;;;;2.35;1.10;;;17.40;94.80;;;;;;4897129;29;20033;-76
2022/10/16 00:40:33;;;;;;;1.38;1.00;;;17.40;94.80;;;;;;4890948;29;20036;-76
2022/10/16 00:42:59;;;;;;;1.20;1.10;;;17.40;94.80;;;;;;4897099;29;20588;-76
2022/10/16 00:45:25;;;;;;;1.58;1.15;;;17.40;94.70;;;;;;4905249;29;20709;-76
2022/10/16 00:47:53;;;;;;;0.93;0.93;;;17.40;94.70;;;;;;4890096;29;20124;-75
2022/10/16 00:50:29;;;;;;;1.55;1.23;;;17.40;94.60;;;;;;4895126;29;20043;-76
2022/10/16 00:52:55;;;;;;;;;;;17.40;94.70;;;;;;4895384;29;20032;-75
2022/10/16 00:55:21;;;;;;;0.98;0.90;;;17.40;94.60;;;;;;4889934;29;19919;-75
2022/10/16 00:57:49;;;;;;;2.42;1.00;;;17.40;94.60;;;;;;4901056;29;20036;-75
2022/10/16 01:00:22;;;;;;;1.90;1.10;;;17.40;94.60;;;;;;4901509;29;20084;-75
2022/10/16 01:02:58;;;;;;;1.10;1.00;;;17.40;94.70;;;;;;4893304;29;20064;-75
2022/10/16 01:05:50;;;;;;;1.45;1.10;;;17.40;94.70;;;;;;4893913;29;20771;-76
2022/10/16 01:08:31;;;;;;;1.92;1.08;;;17.40;94.60;;;;;;4896243;29;20584;-75
2022/10/16 01:11:20;;;;;;;1.55;1.00;;;17.40;94.70;;;;;;4891620;29;20701;-76
2022/10/16 01:13:51;;;;;;;2.05;1.00;;;17.40;94.70;;;;;;4897448;29;20048;-75
2022/10/16 01:16:43;;;;;;;1.08;0.93;;;17.30;94.80;;;;;;4892922;29;20040;-76
2022/10/16 01:19:16;;;;;;;1.30;0.80;;;17.30;94.70;;;;;;4893357;29;20515;-75
2022/10/16 01:21:46;;;;;;;1.90;0.95;;;17.20;94.60;;;;;;4899929;29;20063;-75
2022/10/16 01:24:32;;;;;;;1.02;0.80;;;17.20;94.60;;;;;;4889773;29;20127;-76
2022/10/16 01:27:04;;;;;;;0.80;0.80;;;17.10;94.70;;;;;;4897003;29;20047;-75
2022/10/16 01:29:31;;;;;;;1.00;0.90;;;17.10;94.80;;;;;;4895181;29;20032;-75
2022/10/16 01:32:02;;;;;;;2.13;1.10;;;17.10;94.70;;;;;;4889616;29;20037;-75
2022/10/16 01:34:58;;;;;;;1.45;1.10;;;17.20;94.90;;;;;;4896461;29;20672;-76
2022/10/16 01:37:57;;;;;;;1.05;0.82;;;17.20;95.00;;;;;;4898659;29;20063;-75
2022/10/16 01:40:26;;;;;;;1.00;0.90;;;17.20;95.00;;;;;;4893388;29;20842;-76
2022/10/16 01:43:06;;;;;;;1.10;1.00;;;17.20;95.00;;;;;;4896261;29;20646;-76
2022/10/16 01:45:34;;;;;;;1.33;1.10;;;17.10;95.00;;;;;;4890849;29;20037;-75
2022/10/16 01:48:04;;;;;;;0.88;0.88;;;17.20;95.00;;;;;;4894023;29;20088;-75
2022/10/16 01:50:34;;;;;;;2.20;1.02;;;17.20;95.00;;;;;;4898363;29;20037;-75
2022/10/16 01:53:03;;;;;;;0.93;0.82;;;17.20;95.00;;;;;;4890862;29;20478;-75
2022/10/16 01:55:33;;;;;;;1.52;1.00;;;17.20;94.90;;;;;;4901276;29;20036;-76
2022/10/16 01:58:02;;;;;;;0.70;0.70;;;17.20;94.90;;;;;;4900822;29;20040;-74
2022/10/16 02:00:29;;;;;;;2.53;0.98;;;17.20;94.90;;;;;;4897404;29;20037;-76
2022/10/16 02:02:57;;;;;;;0.93;0.88;;;17.20;95.10;;;;;;4893396;29;20050;-76
2022/10/16 02:05:42;;;;;;;1.13;1.00;;;17.10;95.10;;;;;;4893937;29;20124;-75
2022/10/16 02:08:08;;;;;;;1.80;1.10;;;17.10;95.10;;;;;;4891104;29;20032;-75
2022/10/16 02:10:36;;;;;;;2.45;0.90;;;17.10;95.10;;;;;;4900855;29;20040;-75
2022/10/16 02:13:44;;;;;;;1.20;1.10;;;17.20;95.10;;;;;;4893958;29;20544;-75
2022/10/16 02:16:12;;;;;;;1.30;1.17;;;17.20;95.00;;;;;;4894222;29;20068;-75
2022/10/16 02:18:38;;;;;;;1.20;0.85;;;17.20;95.00;;;;;;4896905;29;20037;-76
2022/10/16 02:21:18;;;;;;;1.10;1.00;;;17.10;95.00;;;;;;4895555;29;20504;-76
2022/10/16 02:24:02;;;;;;;0.98;0.93;;;17.10;95.10;;;;;;4892769;29;20037;-75
2022/10/16 02:26:41;;;;;;;0.70;0.70;;;17.00;95.10;;;;;;4899283;29;20033;-76
2022/10/16 02:29:14;;;;;;;1.83;1.25;;;17.00;95.00;;;;;;4887863;29;20170;-76
2022/10/16 02:31:44;;;;;;;2.47;1.00;;;16.90;95.00;;;;;;4897829;29;20709;-76
2022/10/16 02:34:12;;;;;;;0.93;0.90;;;16.90;95.00;;;;;;4898180;29;20040;-75
2022/10/16 02:36:39;;;;;;;1.17;0.82;;;16.90;95.00;;;;;;4893631;29;20752;-76
2022/10/16 02:39:06;;;;;;;1.38;1.10;;;16.90;95.10;;;;;;4894009;29;20032;-76
2022/10/16 02:41:32;;;;;;;0.73;0.73;;;16.80;95.10;;;;;;4895215;29;20032;-75
2022/10/16 02:43:58;;;;;;;2.40;0.90;;;16.80;95.20;;;;;;4890390;29;20073;-76
2022/10/16 02:46:23;;;;;;;1.35;0.75;;;16.80;95.30;;;;;;4901853;29;20036;-76
2022/10/16 02:48:49;;;;;;;1.15;0.90;;;16.70;95.30;;;;;;4912335;29;20036;-75
2022/10/16 02:51:15;;;;;;;0.75;0.75;;;16.70;95.30;;;;;;4891901;29;20032;-76
2022/10/16 02:53:40;;;;;;;1.17;0.95;;;16.70;95.30;;;;;;4894385;29;20087;-76
2022/10/16 02:56:06;;;;;;;1.10;1.00;;;16.60;95.40;;;;;;4894997;29;20032;-76
2022/10/16 02:58:32;;;;;;;0.90;0.90;;;16.60;95.40;;;;;;4891347;29;20036;-76
2022/10/16 03:00:58;;;;;;;1.00;0.90;;;16.60;95.40;;;;;;4906395;29;20083;-76
2022/10/16 03:03:23;;;;;;;0.70;0.70;;;16.60;95.50;;;;;;4896195;29;20710;-75
2022/10/16 03:05:50;;;;;;;0.88;0.88;;;16.50;95.50;;;;;;4890265;29;20040;-76
2022/10/16 03:08:16;;;;;;;1.52;1.00;;;16.40;95.60;;;;;;4895529;29;20064;-76
2022/10/16 03:10:42;;;;;;;0.95;0.90;;;16.40;95.70;;;;;;4896229;29;20115;-76
2022/10/16 03:13:07;;;;;;;1.95;1.05;;;16.40;95.70;;;;;;4895308;29;20557;-76
2022/10/16 03:15:33;;;;;;;0.80;0.80;;;16.40;95.80;;;;;;4891381;29;20219;-76
2022/10/16 03:17:59;;;;;;;3.60;1.33;;;16.40;95.80;;;;;;4894417;29;20051;-76
2022/10/16 03:20:25;;;;;;;1.88;1.00;;;16.30;95.80;;;;;;4888535;29;20036;-75
2022/10/16 03:22:51;;;;;;;1.40;1.00;;;16.30;95.90;;;;;;4894009;29;20378;-76
2022/10/16 03:25:16;;;;;;;1.83;1.35;;;16.20;95.90;;;;;;4894534;29;20025;-76
2022/10/16 03:27:42;;;;;;;1.15;0.95;;;16.20;95.90;;;;;;4890691;29;20975;-76
2022/10/16 03:30:08;;;;;;;1.40;0.90;;;16.20;96.00;;;;;;4898934;29;20115;-76
2022/10/16 03:32:34;;;;;;;1.48;0.80;;;16.20;96.10;;;;;;4902058;29;20040;-76
2022/10/16 03:35:00;;;;;;;1.10;1.00;;;16.20;96.20;;;;;;4895031;29;20040;-76
2022/10/16 03:37:26;;;;;;;1.48;1.00;;;16.10;96.20;;;;;;4894649;29;20492;-76
2022/10/16 03:39:52;;;;;;;0.90;0.80;;;16.10;96.30;;;;;;4898306;29;20120;-75
2022/10/16 03:42:17;;;;;;;1.63;0.93;;;16.10;96.30;;;;;;4893875;29;20039;-76
2022/10/16 03:44:43;;;;;;;1.10;1.00;;;16.10;96.40;;;;;;4899968;29;20552;-75
2022/10/16 03:47:09;;;;;;;0.90;0.90;;;16.10;96.40;;;;;;4901429;29;20039;-75
2022/10/16 03:49:35;;;;;;;1.40;0.88;;;16.10;96.50;;;;;;4902595;29;20456;-76
2022/10/16 03:52:00;;;;;;;1.40;1.27;;;16.10;96.50;;;;;;4896355;29;20141;-76
2022/10/16 03:54:26;;;;;;;0.73;0.73;;;16.10;96.60;;;;;;4899197;29;20135;-76
2022/10/16 03:56:52;;;;;;;1.13;0.80;;;16.10;96.50;;;;;;4891297;29;20028;-75
2022/10/16 03:59:17;;;;;;;0.90;0.90;;;16.10;96.60;;;;;;4894627;29;20658;-76
2022/10/16 04:01:43;;;;;;;1.60;0.95;;;16.10;96.80;;;;;;4896820;29;20082;-76
2022/10/16 04:04:09;;;;;;;1.10;1.00;;;16.20;96.80;;;;;;4890670;29;20110;-76
2022/10/16 04:06:35;;;;;;;0.90;0.90;;;16.20;96.80;;;;;;4900047;29;20036;-75
2022/10/16 04:09:00;;;;;;;0.90;0.88;;;16.10;96.90;;;;;;4906168;29;20480;-75
2022/10/16 04:11:27;;;;;;;0.80;0.80;;;16.10;96.90;;;;;;4913006;29;20547;-76
2022/10/16 04:13:52;;;;;;;1.10;1.00;;;16.10;96.80;;;;;;4894955;29;20044;-76
2022/10/16 04:16:18;;;;;;;1.55;1.10;;;16.10;96.90;;;;;;4897449;29;20088;-76
2022/10/16 04:18:44;;;;;;;2.22;0.90;;;16.20;96.80;;;;;;4898404;29;20040;-75
2022/10/16 04:21:10;;;;;;;1.40;0.90;;;16.10;96.70;;;;;;4896683;29;20092;-75
2022/10/16 04:23:35;;;;;;;1.20;1.00;;;16.10;96.80;;;;;;4901156;29;20127;-75
2022/10/16 04:26:01;;;;;;;2.17;1.00;;;16.10;96.80;;;;;;4890402;29;20044;-76
2022/10/16 04:28:27;;;;;;;1.92;1.00;;;16.10;97.10;;;;;;4894772;29;20036;-76
2022/10/16 04:30:53;;;;;;;0.95;0.82;;;16.10;96.90;;;;;;4901416;29;20051;-76
2022/10/16 04:33:19;;;;;;;1.00;0.90;;;16.10;97.00;;;;;;4897967;29;20035;-76
2022/10/16 04:35:44;;;;;;;1.30;1.17;;;16.10;96.90;;;;;;4900381;29;20043;-75
2022/10/16 04:38:10;;;;;;;2.67;0.80;;;16.10;96.90;;;;;;4910089;29;20464;-76
2022/10/16 04:40:36;;;;;;;1.20;1.10;;;16.10;96.80;;;;;;4911065;29;20393;-75
2022/10/16 04:43:05;;;;;;;1.83;1.15;;;16.10;96.90;;;;;;4901242;29;20613;-75
2022/10/16 04:45:31;;;;;;;1.70;1.08;;;16.10;96.90;;;;;;4908755;29;20508;-76
2022/10/16 04:47:58;;;;;;;0.85;0.85;;;16.10;96.80;;;;;;4907567;29;20032;-76
2022/10/16 04:50:24;;;;;;;2.13;1.00;;;16.00;96.80;;;;;;4902165;29;20036;-76
2022/10/16 04:53:04;;;;;;;1.10;1.00;;;16.00;96.80;;;;;;4902742;29;20576;-76
2022/10/16 04:55:30;;;;;;;1.42;1.02;;;16.00;96.80;;;;;;4893526;29;20040;-75
2022/10/16 04:57:56;;;;;;;1.13;1.02;;;16.00;96.90;;;;;;4897150;29;20056;-75
2022/10/16 05:00:22;;;;;;;1.42;1.00;;;16.00;97.00;;;;;;4896785;29;20051;-75
2022/10/16 05:02:49;;;;;;;1.73;1.30;;;16.00;97.00;;;;;;4901249;29;20048;-75
2022/10/16 05:05:15;;;;;;;1.77;1.42;;;16.10;97.10;;;;;;4899483;29;20155;-75
2022/10/16 05:07:41;;;;;;;1.90;1.30;;;16.10;97.20;;;;;;4908953;29;20501;-75
2022/10/16 05:10:07;;;;;;;1.30;1.20;;;16.10;97.20;;;;;;4908365;29;20055;-75
2022/10/16 05:12:33;;;;;;;2.47;1.33;;;16.10;97.30;;;;;;4901193;29;20638;-76
2022/10/16 05:14:59;;;;;;;1.65;1.30;;;16.10;97.20;;;;;;4896678;29;20059;-76
2022/10/16 05:17:26;;;;;;;2.25;1.40;;;16.10;97.20;;;;;;4895985;29;20029;-76
2022/10/16 05:19:51;;;;;;;1.67;1.58;;;16.10;97.00;;;;;;4899712;29;20028;-76
2022/10/16 05:22:18;;;;;;;1.80;1.42;;;16.10;97.00;;;;;;4912704;29;20027;-75
2022/10/16 05:24:43;;;;;;;2.88;1.80;;;16.10;97.00;;;;;;4905715;29;20131;-75
2022/10/16 05:27:10;;;;;;;3.28;1.98;;;16.10;96.80;;;;;;4901126;29;20203;-76
2022/10/16 05:29:36;;;;;;;2.97;1.83;;;16.00;96.70;;;;;;4899056;29;20040;-75
2022/10/16 05:32:02;;;;;;;3.33;2.00;;;16.00;96.60;;;;;;4893741;29;20048;-75
2022/10/16 05:34:28;;;;;;;2.72;1.70;;;16.00;96.60;;;;;;4895316;29;20127;-76
2022/10/16 05:36:54;;;;;;;4.75;2.03;;;16.00;96.70;;;;;;4897417;29;20039;-76
2022/10/16 05:39:19;;;;;;;2.63;1.55;;;16.00;96.70;;;;;;4903029;29;20123;-76
2022/10/16 05:41:45;;;;;;;2.30;1.10;;;16.00;96.80;;;;;;4900714;29;20056;-75
2022/10/16 05:44:11;;;;;;;2.20;1.05;;;15.90;96.90;;;;;;4898651;29;20037;-76
2022/10/16 05:46:37;;;;;;;1.10;1.00;;;16.00;97.00;;;;;;4894590;29;20067;-75
2022/10/16 05:49:03;;;;;;;1.20;1.10;;;15.90;96.90;;;;;;4902986;29;20134;-76
2022/10/16 05:51:29;;;;;;;1.10;1.00;;;15.90;97.00;;;;;;4903781;29;20072;-76
2022/10/16 05:53:54;;;;;;;1.00;0.90;;;16.00;97.00;;;;;;4894397;29;20040;-76
2022/10/16 05:56:20;;;;;;;1.63;1.00;;;16.00;97.10;;;;;;4896620;29;20024;-76
2022/10/16 05:58:46;;;;;;;1.02;0.93;;;16.00;97.20;;;;;;4901742;29;20420;-75
2022/10/16 06:01:14;;;;;;;5.05;1.17;;;16.00;97.20;;;;;;4898454;29;20450;-76
2022/10/16 06:03:40;;;;;;;1.65;1.10;;;16.00;97.10;;;;;;4900812;29;20028;-76
2022/10/16 06:06:15;;;;;;;1.23;1.10;;;16.10;97.20;;;;;;4901917;29;20047;-75
2022/10/16 06:08:42;;;;;;;1.17;1.05;;;16.10;97.10;;;;;;4901830;29;20031;-76
2022/10/16 06:11:10;;;;;;;1.17;0.88;;;16.10;97.00;;;;;;4904230;29;20060;-75
2022/10/16 06:13:37;;;;;;;1.27;1.00;;;16.10;97.00;;;;;;4898684;29;20032;-76
2022/10/16 06:16:03;;;;;;;1.10;1.00;;;16.10;97.10;;;;;;4898262;29;20032;-74
2022/10/16 06:18:29;;;;;;;1.52;1.08;;;16.20;97.00;;;;;;4904141;29;20043;-74
2022/10/16 06:20:56;;;;;;;1.10;1.00;;;16.20;97.10;;;;;;4903698;29;20036;-74
2022/10/16 06:23:23;;;;;;;0.90;0.90;;;16.20;97.10;;;;;;4898718;29;20047;-75
2022/10/16 06:25:48;;;;;;;4.25;0.90;;;16.20;97.10;;;;;;4901884;29;20023;-74
2022/10/16 06:28:15;;;;;;;1.10;1.00;;;16.30;97.10;;;;;;4899573;29;20793;-74
2022/10/16 06:30:43;;;;;;;0.82;0.82;;;16.30;97.00;;;;;;4907445;29;20032;-74
2022/10/16 06:33:10;;;;;;;1.02;0.85;;;16.30;97.00;;;;;;4902500;29;20080;-74
2022/10/16 06:35:36;;;;;;;1.52;1.30;;;16.30;97.10;;;;;;4896675;29;20446;-75
2022/10/16 06:38:02;;;;;;;1.27;1.13;;;16.30;97.10;;;;;;4898510;29;20103;-76
2022/10/16 06:40:27;;;;;;;1.08;1.00;;;16.40;97.10;;;;;;4901210;29;20036;-76
2022/10/16 06:42:55;;;;;;;1.30;1.08;;;16.40;97.10;;;;;;4896599;29;20028;-77
2022/10/16 06:45:21;;;;;;;1.33;1.08;;;16.40;97.10;;;;;;4893651;29;20081;-77
2022/10/16 06:47:46;;;;;;;1.48;1.25;;;16.50;97.00;;;;;;4898264;29;20115;-77
2022/10/16 06:50:12;;;;;;;1.50;1.15;;;16.50;96.90;;;;;;4896427;29;20037;-77
2022/10/16 06:52:38;;;;;;;1.63;1.08;;;16.60;96.80;;;;;;4898595;29;20416;-77
2022/10/16 06:55:04;;;;;;;2.15;1.05;;;16.60;96.80;;;;;;4899438;29;20028;-76
2022/10/16 06:57:30;;;;;;;2.17;1.40;;;16.60;96.80;;;;;;4894107;29;20027;-77
2022/10/16 06:59:56;;;;;;;1.40;1.27;;;16.70;96.80;;;;;;4905119;29;20021;-77
2022/10/16 07:02:21;;;;;;;2.30;1.45;;;16.80;96.80;;;;;;4905933;29;20552;-76
2022/10/16 07:04:47;;;;;;;1.50;1.23;;;16.90;96.70;;;;;;4896389;29;20028;-76
2022/10/16 07:07:13;;;;;;;1.98;1.15;;;17.00;96.60;;;;;;4891454;29;20159;-76
2022/10/16 07:09:39;;;;;;;1.30;1.20;;;17.00;96.40;;;;;;4897902;29;20039;-75
2022/10/16 07:12:05;;;;;;;1.10;1.00;;;17.00;96.30;;;;;;4884998;29;20032;-73
2022/10/16 07:14:31;;;;;;;2.22;1.10;;;17.10;96.10;;;;;;4892475;29;20032;-76
2022/10/16 07:16:57;;;;;;;1.27;1.13;;;17.10;96.20;;;;;;4901701;29;20028;-74
2022/10/16 07:19:23;;;;;;;1.80;1.00;;;17.20;96.20;;;;;;4900797;29;20106;-74
2022/10/16 07:21:48;;;;;;;3.15;1.60;;;17.20;96.00;;;;;;4893892;29;20035;-76
2022/10/16 07:24:16;;;;;;;1.58;1.30;;;17.30;96.00;;;;;;4900455;29;20020;-76
2022/10/16 07:26:44;;;;;;;5.65;1.17;;;17.30;95.90;;;;;;4901454;29;20111;-78
2022/10/16 07:29:19;;;;;;;1.30;1.20;;;17.30;95.60;;;;;;4907970;29;20059;-80
2022/10/16 07:31:46;;;;;;;2.42;1.50;;;17.40;95.60;;;;;;4902456;29;20036;-80
2022/10/16 07:34:14;;;;;;;1.80;1.20;;;17.40;95.50;;;;;;4898336;29;20044;-79
2022/10/16 07:36:40;;;;;;;1.40;1.30;;;17.40;95.70;;;;;;4890472;29;20029;-79
2022/10/16 07:39:06;;;;;;;2.67;1.52;;;17.40;95.60;;;;;;4892218;29;20055;-80
2022/10/16 07:41:36;;;;;;;3.03;1.38;;;17.40;95.70;;;;;;4904555;29;20024;-80
2022/10/16 07:44:02;;;;;;;2.25;1.33;;;17.40;95.60;;;;;;4894239;29;20476;-77
2022/10/16 07:46:28;;;;;;;1.92;1.25;;;17.40;95.50;;;;;;4913750;29;20626;-76
2022/10/16 07:48:54;;;;;;;1.58;1.20;;;17.50;95.50;;;;;;4897962;29;20036;-77
2022/10/16 07:51:22;;;;;;;1.15;1.02;;;17.50;95.40;;;;;;4881027;29;20046;-77
2022/10/16 07:53:48;;;;;;;1.33;1.02;;;17.50;95.40;;;;;;4898971;29;20096;-77
2022/10/16 07:56:16;;;;;;;2.17;1.17;;;17.60;95.50;;;;;;4899287;29;20048;-77
2022/10/16 07:58:42;;;;;;;1.88;1.50;;;17.60;95.40;;;;;;4896020;29;20100;-77
2022/10/16 08:01:10;;;;;;;1.73;1.17;;;17.70;95.50;;;;;;4898197;29;20136;-76
2022/10/16 08:03:36;;;;;;;3.47;1.30;;;17.70;95.40;;;;;;4896122;29;20060;-77
2022/10/16 08:06:03;;;;;;;1.98;1.60;;;17.90;95.20;;;;;;4897894;29;20444;-77
2022/10/16 08:08:29;;;;;;;3.15;1.50;;;17.90;95.00;;;;;;4898380;29;20111;-77
2022/10/16 08:10:55;;;;;;;1.88;1.27;;;18.00;94.80;;;;;;4903583;29;20421;-79
2022/10/16 08:13:21;;;;;;;0.95;0.90;;;18.00;94.60;;;;;;4902458;29;20066;-78
2022/10/16 08:15:47;;;;;;;1.77;1.10;;;18.10;94.40;;;;;;4904052;29;20115;-76
2022/10/16 08:18:14;;;;;;;0.70;0.70;;;18.00;94.40;;;;;;4903931;29;20032;-81
2022/10/16 08:20:41;;;;;;;3.10;0.90;;;18.00;94.50;;;;;;4903244;29;20036;-82
2022/10/16 08:23:07;;;;;;;0.88;0.88;;;18.00;94.50;;;;;;4905387;29;20062;-80
2022/10/16 08:25:36;;;;;;;3.17;1.00;;;18.00;94.50;;;;;;4908770;29;20100;-80
2022/10/16 08:28:04;;;;;;;2.15;0.85;;;18.00;94.50;;;;;;4905356;29;20118;-77
2022/10/16 08:30:30;;;;;;;2.33;1.00;;;18.10;94.60;;;;;;4908717;29;20043;-79
2022/10/16 08:32:57;;;;;;;2.10;0.88;;;18.20;94.30;;;;;;4903535;29;20040;-81
2022/10/16 08:35:24;;;;;;;1.08;0.80;;;18.20;94.30;;;;;;4889220;29;20038;-78
2022/10/16 08:37:49;;;;;;;0.70;0.68;;;18.10;94.30;;;;;;4910879;29;20083;-81
2022/10/16 08:40:28;;;;;;;2.75;0.88;;;18.20;94.30;;;;;;4903393;29;20028;-79
2022/10/16 08:43:08;;;;;;;4.85;0.93;;;18.20;94.20;;;;;;4902271;29;20072;-77
2022/10/16 08:46:14;;;;;;;1.13;0.95;;;18.30;94.00;;;;;;4898865;29;20652;-77
2022/10/16 08:48:47;;;;;;;1.63;1.20;;;18.30;94.10;;;;;;4904633;29;20119;-77
2022/10/16 08:51:39;;;;;;;2.42;0.65;;;18.40;94.00;;;;;;4902034;29;20136;-83
2022/10/16 08:54:11;;;;;;;1.55;0.70;;;18.30;93.90;;;;;;4906127;29;20095;-79
2022/10/16 08:56:37;;;;;;;0.93;0.68;;;18.40;93.90;;;;;;4893311;29;20657;-78
2022/10/16 08:59:09;;;;;;;0.85;0.68;;;18.60;93.60;;;;;;4912085;29;20037;-76
2022/10/16 09:01:45;;;;;;;1.73;0.85;;;18.70;93.40;;;;;;4899856;29;20043;-79
2022/10/16 09:04:54;;;;;;;1.17;0.90;;;18.70;93.20;;;;;;4896715;29;20062;-79
2022/10/16 09:07:39;;;;;;;0.88;0.80;;;18.80;92.90;;;;;;4902620;29;20357;-79
2022/10/16 09:10:27;;;;;;;1.40;0.80;;;18.90;93.00;;;;;;4903463;29;20040;-78
2022/10/16 09:13:11;;;;;;;2.67;1.08;;;19.00;92.70;;;;;;4895459;29;20047;-79
2022/10/16 09:16:03;;;;;;;3.75;1.00;;;19.00;92.80;;;;;;4911212;29;20043;-78
2022/10/16 09:18:40;;;;;;;0.70;0.65;;;19.10;92.40;;;;;;4894063;29;20028;-80
2022/10/16 09:21:21;;;;;;;1.20;0.70;;;19.20;92.50;;;;;;4906037;29;20519;-80
2022/10/16 09:23:47;;;;;;;2.88;0.82;;;19.20;91.90;;;;;;4896015;29;20096;-83
2022/10/16 09:26:16;;;;;;;2.90;0.93;;;19.30;91.60;;;;;;4892181;29;20040;-77
2022/10/16 09:28:41;;;;;;;0.93;0.82;;;19.30;91.60;;;;;;4908684;29;20039;-77
2022/10/16 09:31:20;;;;;;;2.75;0.65;;;19.40;91.30;;;;;;4908022;29;20083;-76
2022/10/16 09:33:52;;;;;;;2.08;0.88;;;19.60;91.40;;;;;;4898031;29;20131;-77
2022/10/16 09:36:20;;;;;;;1.33;1.00;;;19.80;90.80;;;;;;4904590;29;20031;-77
2022/10/16 09:38:45;;;;;;;2.38;0.75;;;19.80;90.70;;;;;;4900571;29;20767;-77
2022/10/16 09:41:19;;;;;;;1.00;0.60;;;19.90;90.40;;;;;;4908981;29;20037;-77
2022/10/16 09:43:57;;;;;;;2.00;1.10;;;19.90;90.50;;;;;;4903877;29;20028;-73
2022/10/16 09:46:37;;;;;;;1.25;0.85;;;19.80;90.50;;;;;;4905024;29;20133;-82
2022/10/16 09:49:18;;;;;;;2.53;1.23;;;19.90;90.20;;;;;;4903359;29;20055;-72
2022/10/16 09:51:45;;;;;;;2.00;0.90;;;20.00;89.80;;;;;;4899622;29;20123;-71
2022/10/16 09:54:10;;;;;;;2.50;1.40;;;20.20;89.10;;;;;;4903222;29;20382;-71
2022/10/16 09:56:39;;;;;;;2.88;0.82;;;20.40;86.90;;;;;;4895113;29;20036;-70
2022/10/16 09:59:14;;;;;;;1.77;0.95;;;20.40;86.70;;;;;;4899500;29;20866;-66
2022/10/16 10:01:46;;;;;;;1.88;0.90;;;20.70;87.10;;;;;;4892609;29;20055;-69
2022/10/16 10:04:12;;;;;;;2.35;1.08;;;20.80;85.30;;;;;;4906463;29;20040;-70
2022/10/16 10:06:47;;;;;;;0.73;0.73;;;20.70;83.20;;;;;;4904483;29;20035;-68
2022/10/16 10:09:18;;;;;;;0.70;0.70;;;20.60;84.50;;;;;;4897297;29;20047;-69
2022/10/16 10:11:54;;;;;;;1.95;1.02;;;20.60;83.70;;;;;;4897418;29;20036;-68
2022/10/16 10:14:40;;;;;;;0.80;0.60;;;20.60;83.50;;;;;;4896494;29;20040;-69
2022/10/16 10:17:06;;;;;;;1.00;0.85;;;20.60;83.80;;;;;;4896006;29;20040;-70
2022/10/16 10:20:15;;;;;;;1.25;0.93;;;20.50;84.20;;;;;;4900974;29;20084;-69
2022/10/16 10:22:45;;;;;;;1.48;0.70;;;20.40;84.70;;;;;;4893725;29;20041;-69
2022/10/16 10:25:11;;;;;;;2.28;0.80;;;20.30;84.30;;;;;;4900109;29;20524;-69
2022/10/16 10:27:42;;;;;;;1.77;0.60;;;20.40;84.80;;;;;;4900943;29;20143;-69
2022/10/16 10:30:29;;;;;;;2.28;0.90;;;20.40;84.20;;;;;;4905042;29;20070;-69
2022/10/16 10:33:32;;;;;;;1.08;0.70;;;20.50;83.60;;;;;;4900118;29;20889;-69
2022/10/16 10:36:28;;;;;;;2.00;0.95;;;20.60;82.80;;;;;;4895951;29;20059;-70
2022/10/16 10:39:04;;;;;;;5.35;0.90;;;21.00;81.40;;;;;;4906227;29;20036;-71
2022/10/16 10:41:29;;;;;;;5.15;0.80;;;21.30;80.30;;;;;;4895310;29;20043;-71
2022/10/16 10:44:15;;;;;;;0.77;0.63;;;21.10;79.90;;;;;;4900951;29;20032;-71
2022/10/16 10:46:47;;;;;;;1.63;0.70;;;21.20;79.40;;;;;;4904923;29;20036;-71
2022/10/16 10:49:39;;;;;;;0.90;0.73;;;21.20;80.00;;;;;;4897404;29;20054;-69
2022/10/16 10:52:24;;;;;;;1.17;0.75;;;21.50;79.30;;;;;;4899921;29;20051;-69
2022/10/16 10:55:11;;;;;;;2.33;0.68;;;21.60;77.60;;;;;;4896383;29;20088;-69
2022/10/16 10:57:56;;;;;;;1.13;0.70;;;21.90;78.60;;;;;;4902415;29;20059;-69
2022/10/16 11:00:35;;;;;;;2.80;0.50;;;22.70;75.40;;;;;;4898602;29;20035;-70
2022/10/16 11:03:38;;;;;;;5.30;0.70;;;22.60;73.00;;;;;;4898512;29;20032;-69
2022/10/16 11:06:46;;;;;;;1.50;0.57;;;22.40;74.00;;;;;;4899181;29;20032;-69
2022/10/16 11:09:16;;;;;;;3.20;0.73;;;22.10;75.20;;;;;;4900900;29;20039;-69
2022/10/16 11:11:48;;;;;;;8.02;1.17;;;21.90;75.80;;;;;;4900276;29;20036;-68
2022/10/16 11:14:17;;;;;;;4.93;0.50;;;21.80;75.20;;;;;;4891967;29;20027;-70
2022/10/16 11:16:53;;;;;;;0.40;0.40;;;21.60;75.20;;;;;;4896968;29;20068;-69
2022/10/16 11:19:46;;;;;;;3.83;0.75;;;21.40;73.70;;;;;;4896277;29;20171;-67
2022/10/16 11:22:19;;;;;;;4.55;0.70;;;21.20;74.50;;;;;;4901145;29;20036;-69
2022/10/16 11:25:27;;;;;;;5.70;3.00;;;21.00;74.90;;;;;;4897109;29;20033;-69
2022/10/16 11:28:08;;;;;;;9.57;6.18;;;21.00;74.90;;;;;;4898783;29;20039;-68
2022/10/16 11:30:50;;;;;;;8.30;2.60;;;20.90;75.20;;;;;;4896442;29;20621;-69
2022/10/16 11:33:22;;;;;;;2.97;1.75;;;20.80;75.80;;;;;;4898138;29;20048;-69
2022/10/16 11:36:06;;;;;;;1.65;1.10;;;20.80;76.30;;;;;;4888640;29;20485;-69
2022/10/16 11:38:32;;;;;;;1.45;0.98;;;20.80;75.10;;;;;;4896612;29;20626;-68
2022/10/16 11:41:18;;;;;;;5.35;2.50;;;20.80;75.00;;;;;;4899011;29;20047;-69
2022/10/16 11:44:18;;;;;;;0.75;0.75;;;20.70;75.70;;;;;;4894175;29;20036;-68
2022/10/16 11:47:01;;;;;;;1.33;1.23;;;20.70;74.90;;;;;;4898857;29;20067;-69
2022/10/16 11:49:31;;;;;;;0.73;0.60;;;20.70;75.60;;;;;;4894281;29;20055;-69
2022/10/16 11:52:11;;;;;;;3.00;1.15;;;20.60;75.20;;;;;;4893007;29;20783;-69
2022/10/16 11:54:52;;;;;;;3.83;2.22;;;20.60;76.20;;;;;;4898420;29;20060;-68
2022/10/16 11:57:23;;;;;;;6.13;3.70;;;20.60;76.00;;;;;;4894235;29;20135;-69
2022/10/16 12:00:01;;;;;;;3.08;1.90;;;20.60;76.20;;;;;;4916275;29;20887;-68
2022/10/16 12:02:30;;;;;;;2.05;1.27;;;20.60;76.60;;;;;;4903157;29;20032;-68
2022/10/16 12:05:21;;;;;;;2.97;2.40;;;20.60;77.60;;;;;;4899081;29;20118;-68
2022/10/16 12:08:09;;;;;;;1.10;0.77;;;20.70;75.80;;;;;;4898057;29;20036;-68
2022/10/16 12:10:37;;;;;;;0.70;0.70;;;20.90;75.00;;;;;;4899420;29;20100;-71
2022/10/16 12:13:24;;;;;;;2.97;0.80;;;21.00;75.00;;;;;;4897834;29;20078;-71
2022/10/16 12:15:50;;;;;;;3.65;2.35;;;21.20;75.80;;;;;;4919922;29;20119;-71
2022/10/16 12:18:24;;;;;;;1.73;1.00;;;21.40;74.60;;;;;;4900260;29;20108;-71
2022/10/16 12:21:05;;;;;;;1.08;0.80;;;21.40;73.50;;;;;;4904673;29;20037;-71
2022/10/16 12:23:32;;;;;;;2.08;1.15;;;21.50;73.60;;;;;;4903957;29;20024;-71
2022/10/16 12:26:00;;;;;;;0.70;0.40;;;21.50;72.30;;;;;;4894822;29;20049;-70
2022/10/16 12:28:31;;;;;;;0.85;0.50;;;21.60;72.20;;;;;;4895688;29;20028;-69
2022/10/16 12:31:06;;;;;;;4.88;1.40;;;21.60;72.90;;;;;;4899079;29;20031;-70
2022/10/16 12:33:35;;;;;;;0.40;0.40;;;21.60;72.50;;;;;;4898916;29;20047;-70
2022/10/16 12:36:26;;;;;;;2.40;0.60;;;21.60;73.10;;;;;;4903255;29;20077;-70
2022/10/16 12:38:53;;;;;;;2.15;0.70;;;21.60;73.50;;;;;;4900249;29;20032;-73
2022/10/16 12:41:39;;;;;;;4.45;1.67;;;21.70;72.20;;;;;;4905078;29;20651;-73
2022/10/16 12:44:05;;;;;;;;;;;21.70;71.20;;;;;;4898261;29;20036;-72
2022/10/16 12:46:32;;;;;;;1.45;0.82;;;21.80;70.30;;;;;;4902192;29;19914;-72
2022/10/16 12:49:13;;;;;;;0.80;0.50;;;21.80;69.00;;;;;;4902813;29;20060;-72
2022/10/16 12:51:41;;;;;;;2.88;0.95;;;21.90;69.40;;;;;;4899057;29;20036;-71
2022/10/16 12:54:07;;;;;;;6.35;3.05;;;21.80;69.90;;;;;;4902355;29;20044;-71
2022/10/16 12:56:38;;;;;;;7.68;3.20;;;21.70;69.30;;;;;;4898511;29;20214;-69
2022/10/16 12:59:39;;;;;;;5.18;1.83;;;21.60;70.40;;;;;;4898073;29;20032;-68
2022/10/16 13:03:07;;;;;;;1.30;0.80;;;21.40;70.60;;;;;;4896456;29;20605;-71
2022/10/16 13:06:08;;;;;;;5.32;0.70;;;21.20;71.70;;;;;;4861981;29;20040;-72
2022/10/16 13:08:40;;;;;;;1.25;0.95;;;21.10;71.50;;;;;;4862632;29;20068;-71
2022/10/16 13:11:22;;;;;;;1.13;0.70;;;21.10;71.80;;;;;;4890278;29;20051;-71